sensor_id;sensor_type;location;lat;lon;timestamp;temperature;humidity
67868;SHT31;54672;46.096;14.470;2022-10-16T00:01:46;9.48;99.99
67868;SHT31;54672;46.096;14.470;2022-10-16T00:04:11;9.39;99.99
67868;SHT31;54672;46.096;14.470;2022-10-16T00:06:37;9.38;99.99
67868;SHT31;54672;46.096;14.470;2022-10-16T00:09:03;9.37;99.99
67868;SHT31;54672;46.096;14.470;2022-10-16T00:11:37;9.37;99.99
67868;SHT31;54672;46.096;14.470;2022-10-16T00:14:06;9.34;99.99
67868;SHT31;54672;46.096;14.470;2022-10-16T00:16:33;9.32;99.99
67868;SHT31;54672;46.096;14.470;2022-10-16T00:18:59;9.32;99.99
67868;SHT31;54672;46.096;14.470;2022-10-16T00:21:27;9.37;99.99
67868;SHT31;54672;46.096;14.470;2022-10-16T00:23:55;9.44;99.99
67868;SHT31;54672;46.096;14.470;2022-10-16T00:26:20;9.37;99.99
67868;SHT31;54672;46.096;14.470;2022-10-16T00:28:47;9.34;99.99
67868;SHT31;54672;46.096;14.470;2022-10-16T00:31:14;9.25;99.99
67868;SHT31;54672;46.096;14.470;2022-10-16T00:33:40;9.18;99.99
67868;SHT31;54672;46.096;14.470;2022-10-16T00:36:10;9.13;99.99
67868;SHT31;54672;46.096;14.470;2022-10-16T00:38:36;9.11;99.99
67868;SHT31;54672;46.096;14.470;2022-10-16T00:41:03;9.14;99.99
67868;SHT31;54672;46.096;14.470;2022-10-16T00:46:28;9.15;99.99
67868;SHT31;54672;46.096;14.470;2022-10-16T00:49:14;9.20;99.99
67868;SHT31;54672;46.096;14.470;2022-10-16T00:51:41;9.21;99.99
67868;SHT31;54672;46.096;14.470;2022-10-16T00:54:14;9.18;99.99
67868;SHT31;54672;46.096;14.470;2022-10-16T00:56:40;8.97;99.99
67868;SHT31;54672;46.096;14.470;2022-10-16T00:59:15;8.90;99.99
67868;SHT31;54672;46.096;14.470;2022-10-16T01:01:41;8.90;99.99
67868;SHT31;54672;46.096;14.470;2022-10-16T01:04:07;8.97;99.99
67868;SHT31;54672;46.096;14.470;2022-10-16T01:14:47;8.73;99.99
67868;SHT31;54672;46.096;14.470;2022-10-16T01:17:30;8.83;99.99
67868;SHT31;54672;46.096;14.470;2022-10-16T01:25:23;8.65;99.99
67868;SHT31;54672;46.096;14.470;2022-10-16T01:27:50;8.59;99.99
67868;SHT31;54672;46.096;14.470;2022-10-16T01:30:20;8.63;99.99
67868;SHT31;54672;46.096;14.470;2022-10-16T01:32:52;8.70;99.99
67868;SHT31;54672;46.096;14.470;2022-10-16T01:35:23;8.69;99.99
67868;SHT31;54672;46.096;14.470;2022-10-16T01:40:52;8.86;99.99
67868;SHT31;54672;46.096;14.470;2022-10-16T01:43:35;8.91;99.99
67868;SHT31;54672;46.096;14.470;2022-10-16T01:46:02;8.91;99.99
67868;SHT31;54672;46.096;14.470;2022-10-16T01:48:29;8.96;99.99
67868;SHT31;54672;46.096;14.470;2022-10-16T01:51:03;9.00;99.99
67868;SHT31;54672;46.096;14.470;2022-10-16T01:53:30;8.99;99.99
67868;SHT31;54672;46.096;14.470;2022-10-16T01:55:57;9.03;99.99
67868;SHT31;54672;46.096;14.470;2022-10-16T01:58:25;9.17;99.99
67868;SHT31;54672;46.096;14.470;2022-10-16T02:00:52;9.24;99.99
67868;SHT31;54672;46.096;14.470;2022-10-16T02:03:20;9.35;99.99
67868;SHT31;54672;46.096;14.470;2022-10-16T02:05:55;9.35;99.99
67868;SHT31;54672;46.096;14.470;2022-10-16T02:08:23;9.30;99.99
67868;SHT31;54672;46.096;14.470;2022-10-16T02:10:49;9.21;99.99
67868;SHT31;54672;46.096;14.470;2022-10-16T02:13:33;9.14;99.99
67868;SHT31;54672;46.096;14.470;2022-10-16T02:15:59;9.14;99.99
67868;SHT31;54672;46.096;14.470;2022-10-16T02:18:26;9.11;99.99
67868;SHT31;54672;46.096;14.470;2022-10-16T02:23:27;9.14;99.99
67868;SHT31;54672;46.096;14.470;2022-10-16T02:25:56;9.15;99.99
67868;SHT31;54672;46.096;14.470;2022-10-16T02:28:33;9.21;99.99
67868;SHT31;54672;46.096;14.470;2022-10-16T02:31:07;9.13;99.99
67868;SHT31;54672;46.096;14.470;2022-10-16T02:33:34;9.08;99.99
67868;SHT31;54672;46.096;14.470;2022-10-16T02:36:01;9.08;99.99
67868;SHT31;54672;46.096;14.470;2022-10-16T02:38:28;9.13;99.99
67868;SHT31;54672;46.096;14.470;2022-10-16T02:40:56;9.11;99.99
67868;SHT31;54672;46.096;14.470;2022-10-16T02:43:21;9.17;99.99
67868;SHT31;54672;46.096;14.470;2022-10-16T02:45:47;9.15;99.99
67868;SHT31;54672;46.096;14.470;2022-10-16T02:48:12;9.23;99.99
67868;SHT31;54672;46.096;14.470;2022-10-16T02:50:38;9.30;99.99
67868;SHT31;54672;46.096;14.470;2022-10-16T02:53:03;9.37;99.99
67868;SHT31;54672;46.096;14.470;2022-10-16T02:55:29;9.41;99.99
67868;SHT31;54672;46.096;14.470;2022-10-16T02:57:54;9.45;99.99
67868;SHT31;54672;46.096;14.470;2022-10-16T03:00:20;9.48;99.99
67868;SHT31;54672;46.096;14.470;2022-10-16T03:02:46;9.51;99.99
67868;SHT31;54672;46.096;14.470;2022-10-16T03:05:13;9.55;99.99
67868;SHT31;54672;46.096;14.470;2022-10-16T03:07:39;9.37;99.99
67868;SHT31;54672;46.096;14.470;2022-10-16T03:10:04;9.18;99.99
67868;SHT31;54672;46.096;14.470;2022-10-16T03:12:30;9.04;99.99
67868;SHT31;54672;46.096;14.470;2022-10-16T03:14:57;8.94;99.99
67868;SHT31;54672;46.096;14.470;2022-10-16T03:17:23;8.91;99.99
67868;SHT31;54672;46.096;14.470;2022-10-16T03:19:48;8.81;99.99
67868;SHT31;54672;46.096;14.470;2022-10-16T03:22:14;8.83;99.99
67868;SHT31;54672;46.096;14.470;2022-10-16T03:24:39;8.80;99.99
67868;SHT31;54672;46.096;14.470;2022-10-16T03:27:05;8.77;99.99
67868;SHT31;54672;46.096;14.470;2022-10-16T03:29:31;8.76;99.99
67868;SHT31;54672;46.096;14.470;2022-10-16T03:31:57;8.77;99.99
67868;SHT31;54672;46.096;14.470;2022-10-16T03:34:22;8.72;99.99
67868;SHT31;54672;46.096;14.470;2022-10-16T03:36:48;8.76;99.99
67868;SHT31;54672;46.096;14.470;2022-10-16T03:39:13;8.84;99.99
67868;SHT31;54672;46.096;14.470;2022-10-16T03:41:39;8.81;99.99
67868;SHT31;54672;46.096;14.470;2022-10-16T03:44:04;8.88;99.99
67868;SHT31;54672;46.096;14.470;2022-10-16T03:46:30;8.87;99.99
67868;SHT31;54672;46.096;14.470;2022-10-16T03:48:56;8.77;99.99
67868;SHT31;54672;46.096;14.470;2022-10-16T03:51:21;8.75;99.99
67868;SHT31;54672;46.096;14.470;2022-10-16T03:53:47;8.80;99.99
67868;SHT31;54672;46.096;14.470;2022-10-16T03:56:12;8.69;99.99
67868;SHT31;54672;46.096;14.470;2022-10-16T03:58:38;8.75;99.99
67868;SHT31;54672;46.096;14.470;2022-10-16T04:01:03;8.79;99.99
67868;SHT31;54672;46.096;14.470;2022-10-16T04:03:29;8.79;99.99
67868;SHT31;54672;46.096;14.470;2022-10-16T04:05:54;8.79;99.99
67868;SHT31;54672;46.096;14.470;2022-10-16T04:08:20;8.88;99.99
67868;SHT31;54672;46.096;14.470;2022-10-16T04:10:45;9.03;99.99
67868;SHT31;54672;46.096;14.470;2022-10-16T04:13:14;9.07;99.99
67868;SHT31;54672;46.096;14.470;2022-10-16T04:15:40;9.10;99.99
67868;SHT31;54672;46.096;14.470;2022-10-16T04:18:07;8.91;99.99
67868;SHT31;54672;46.096;14.470;2022-10-16T04:20:33;8.75;99.99
67868;SHT31;54672;46.096;14.470;2022-10-16T04:22:59;8.57;99.99
67868;SHT31;54672;46.096;14.470;2022-10-16T04:25:25;8.49;99.99
67868;SHT31;54672;46.096;14.470;2022-10-16T04:27:53;8.42;99.99
67868;SHT31;54672;46.096;14.470;2022-10-16T04:30:20;8.39;99.99
67868;SHT31;54672;46.096;14.470;2022-10-16T04:32:50;8.34;99.99
67868;SHT31;54672;46.096;14.470;2022-10-16T04:35:17;8.29;99.99
67868;SHT31;54672;46.096;14.470;2022-10-16T04:37:43;8.35;99.99
67868;SHT31;54672;46.096;14.470;2022-10-16T04:40:09;8.34;99.99
67868;SHT31;54672;46.096;14.470;2022-10-16T04:42:34;8.24;99.99
67868;SHT31;54672;46.096;14.470;2022-10-16T04:45:00;8.34;99.99
67868;SHT31;54672;46.096;14.470;2022-10-16T04:47:25;8.44;99.99
67868;SHT31;54672;46.096;14.470;2022-10-16T04:49:50;8.52;99.99
67868;SHT31;54672;46.096;14.470;2022-10-16T04:52:17;8.52;99.99
67868;SHT31;54672;46.096;14.470;2022-10-16T04:54:44;8.41;99.99
67868;SHT31;54672;46.096;14.470;2022-10-16T04:57:11;8.35;99.99
67868;SHT31;54672;46.096;14.470;2022-10-16T04:59:36;8.44;99.99
67868;SHT31;54672;46.096;14.470;2022-10-16T05:02:02;8.53;99.99
67868;SHT31;54672;46.096;14.470;2022-10-16T05:04:27;8.62;99.99
67868;SHT31;54672;46.096;14.470;2022-10-16T05:06:53;8.69;99.99
67868;SHT31;54672;46.096;14.470;2022-10-16T05:09:18;8.73;99.99
67868;SHT31;54672;46.096;14.470;2022-10-16T05:11:44;8.76;99.99
67868;SHT31;54672;46.096;14.470;2022-10-16T05:14:09;8.70;99.99
67868;SHT31;54672;46.096;14.470;2022-10-16T05:16:35;8.75;99.99
67868;SHT31;54672;46.096;14.470;2022-10-16T05:19:00;8.72;99.99
67868;SHT31;54672;46.096;14.470;2022-10-16T05:21:26;8.70;99.99
67868;SHT31;54672;46.096;14.470;2022-10-16T05:23:53;8.73;99.99
67868;SHT31;54672;46.096;14.470;2022-10-16T05:26:19;8.67;99.99
67868;SHT31;54672;46.096;14.470;2022-10-16T05:28:45;8.72;99.99
67868;SHT31;54672;46.096;14.470;2022-10-16T05:31:10;8.55;99.99
67868;SHT31;54672;46.096;14.470;2022-10-16T05:33:36;8.57;99.99
67868;SHT31;54672;46.096;14.470;2022-10-16T05:36:07;8.63;99.99
67868;SHT31;54672;46.096;14.470;2022-10-16T05:38:34;8.63;99.99
67868;SHT31;54672;46.096;14.470;2022-10-16T05:41:00;8.70;99.99
67868;SHT31;54672;46.096;14.470;2022-10-16T05:43:27;8.77;99.99
67868;SHT31;54672;46.096;14.470;2022-10-16T05:46:00;8.49;99.99
67868;SHT31;54672;46.096;14.470;2022-10-16T05:48:26;8.42;99.99
67868;SHT31;54672;46.096;14.470;2022-10-16T05:51:07;8.35;99.99
67868;SHT31;54672;46.096;14.470;2022-10-16T05:53:35;8.41;99.99
67868;SHT31;54672;46.096;14.470;2022-10-16T05:56:01;8.32;99.99
67868;SHT31;54672;46.096;14.470;2022-10-16T05:58:32;8.29;99.99
67868;SHT31;54672;46.096;14.470;2022-10-16T06:01:01;8.45;99.99
67868;SHT31;54672;46.096;14.470;2022-10-16T06:03:27;8.60;99.99
67868;SHT31;54672;46.096;14.470;2022-10-16T06:05:53;8.70;99.99
67868;SHT31;54672;46.096;14.470;2022-10-16T06:08:20;8.67;99.99
67868;SHT31;54672;46.096;14.470;2022-10-16T06:10:46;8.83;99.99
67868;SHT31;54672;46.096;14.470;2022-10-16T06:13:12;8.96;99.99
67868;SHT31;54672;46.096;14.470;2022-10-16T06:15:39;9.01;99.99
67868;SHT31;54672;46.096;14.470;2022-10-16T06:18:11;9.15;99.99
67868;SHT31;54672;46.096;14.470;2022-10-16T06:20:37;9.24;99.99
67868;SHT31;54672;46.096;14.470;2022-10-16T06:23:03;9.27;99.99
67868;SHT31;54672;46.096;14.470;2022-10-16T06:25:30;9.18;99.99
67868;SHT31;54672;46.096;14.470;2022-10-16T06:27:56;9.31;99.99
67868;SHT31;54672;46.096;14.470;2022-10-16T06:30:22;9.30;99.99
67868;SHT31;54672;46.096;14.470;2022-10-16T06:32:47;9.27;99.99
67868;SHT31;54672;46.096;14.470;2022-10-16T06:35:13;9.37;99.99
67868;SHT31;54672;46.096;14.470;2022-10-16T06:37:38;9.44;99.99
67868;SHT31;54672;46.096;14.470;2022-10-16T06:40:04;9.51;99.99
67868;SHT31;54672;46.096;14.470;2022-10-16T06:42:30;9.56;99.99
67868;SHT31;54672;46.096;14.470;2022-10-16T06:44:55;9.65;99.99
67868;SHT31;54672;46.096;14.470;2022-10-16T06:47:21;9.71;99.99
67868;SHT31;54672;46.096;14.470;2022-10-16T06:49:46;9.65;99.24
67868;SHT31;54672;46.096;14.470;2022-10-16T06:52:12;9.56;99.13
67868;SHT31;54672;46.096;14.470;2022-10-16T06:54:37;9.68;99.32
67868;SHT31;54672;46.096;14.470;2022-10-16T06:57:03;9.82;99.37
67868;SHT31;54672;46.096;14.470;2022-10-16T06:59:28;9.81;98.75
67868;SHT31;54672;46.096;14.470;2022-10-16T07:01:54;9.78;98.77
67868;SHT31;54672;46.096;14.470;2022-10-16T07:04:19;9.69;99.09
67868;SHT31;54672;46.096;14.470;2022-10-16T07:06:45;9.89;99.36
67868;SHT31;54672;46.096;14.470;2022-10-16T07:09:11;10.05;99.13
67868;SHT31;54672;46.096;14.470;2022-10-16T07:11:38;9.97;98.32
67868;SHT31;54672;46.096;14.470;2022-10-16T07:14:04;9.99;98.71
67868;SHT31;54672;46.096;14.470;2022-10-16T07:16:31;10.10;98.90
67868;SHT31;54672;46.096;14.470;2022-10-16T07:18:59;10.30;98.76
67868;SHT31;54672;46.096;14.470;2022-10-16T07:21:26;10.37;98.43
67868;SHT31;54672;46.096;14.470;2022-10-16T07:23:58;10.40;98.46
67868;SHT31;54672;46.096;14.470;2022-10-16T07:26:25;10.37;98.13
67868;SHT31;54672;46.096;14.470;2022-10-16T07:28:51;10.53;98.58
67868;SHT31;54672;46.096;14.470;2022-10-16T07:31:21;10.67;98.45
67868;SHT31;54672;46.096;14.470;2022-10-16T07:33:48;10.78;98.02
67868;SHT31;54672;46.096;14.470;2022-10-16T07:36:15;10.85;97.80
67868;SHT31;54672;46.096;14.470;2022-10-16T07:38:42;10.92;97.27
67868;SHT31;54672;46.096;14.470;2022-10-16T07:41:13;10.78;96.92
67868;SHT31;54672;46.096;14.470;2022-10-16T07:43:39;10.88;96.68
67868;SHT31;54672;46.096;14.470;2022-10-16T07:46:04;10.95;96.92
67868;SHT31;54672;46.096;14.470;2022-10-16T07:48:33;11.01;96.73
67868;SHT31;54672;46.096;14.470;2022-10-16T07:51:00;11.20;96.44
67868;SHT31;54672;46.096;14.470;2022-10-16T07:53:26;11.26;95.58
67868;SHT31;54672;46.096;14.470;2022-10-16T07:55:56;11.22;95.14
67868;SHT31;54672;46.096;14.470;2022-10-16T07:58:22;11.42;95.38
67868;SHT31;54672;46.096;14.470;2022-10-16T08:00:48;11.46;94.40
67868;SHT31;54672;46.096;14.470;2022-10-16T08:03:14;11.40;94.72
67868;SHT31;54672;46.096;14.470;2022-10-16T08:05:39;11.53;94.58
67868;SHT31;54672;46.096;14.470;2022-10-16T08:08:05;11.70;93.73
67868;SHT31;54672;46.096;14.470;2022-10-16T08:10:31;11.74;93.71
67868;SHT31;54672;46.096;14.470;2022-10-16T08:12:57;11.49;93.62
67868;SHT31;54672;46.096;14.470;2022-10-16T08:15:22;10.96;95.74
67868;SHT31;54672;46.096;14.470;2022-10-16T08:17:58;11.16;96.03
67868;SHT31;54672;46.096;14.470;2022-10-16T08:20:24;11.44;95.36
67868;SHT31;54672;46.096;14.470;2022-10-16T08:22:50;11.62;94.26
67868;SHT31;54672;46.096;14.470;2022-10-16T08:25:16;11.33;94.90
67868;SHT31;54672;46.096;14.470;2022-10-16T08:27:41;11.40;94.96
67868;SHT31;54672;46.096;14.470;2022-10-16T08:30:07;11.01;95.39
67868;SHT31;54672;46.096;14.470;2022-10-16T08:32:33;10.91;96.51
67868;SHT31;54672;46.096;14.470;2022-10-16T08:34:58;10.96;96.67
67868;SHT31;54672;46.096;14.470;2022-10-16T08:37:24;11.40;95.93
67868;SHT31;54672;46.096;14.470;2022-10-16T08:39:50;11.78;94.91
67868;SHT31;54672;46.096;14.470;2022-10-16T08:42:40;11.83;94.16
67868;SHT31;54672;46.096;14.470;2022-10-16T08:45:28;12.04;93.36
67868;SHT31;54672;46.096;14.470;2022-10-16T08:51:01;11.87;93.87
67868;SHT31;54672;46.096;14.470;2022-10-16T08:53:36;12.01;93.44
67868;SHT31;54672;46.096;14.470;2022-10-16T08:56:05;12.08;93.26
67868;SHT31;54672;46.096;14.470;2022-10-16T08:58:31;12.14;92.85
67868;SHT31;54672;46.096;14.470;2022-10-16T09:00:59;12.08;93.18
67868;SHT31;54672;46.096;14.470;2022-10-16T09:12:40;12.50;91.27
67868;SHT31;54672;46.096;14.470;2022-10-16T09:15:32;12.32;92.15
67868;SHT31;54672;46.096;14.470;2022-10-16T09:18:51;12.29;92.39
67868;SHT31;54672;46.096;14.470;2022-10-16T09:20:53;12.29;92.70
67868;SHT31;54672;46.096;14.470;2022-10-16T09:23:33;12.39;92.72
67868;SHT31;54672;46.096;14.470;2022-10-16T09:25:59;12.62;92.38
67868;SHT31;54672;46.096;14.470;2022-10-16T09:28:25;12.45;92.24
67868;SHT31;54672;46.096;14.470;2022-10-16T09:30:51;12.29;92.29
67868;SHT31;54672;46.096;14.470;2022-10-16T09:33:19;11.90;94.31
67868;SHT31;54672;46.096;14.470;2022-10-16T09:35:51;12.35;93.47
67868;SHT31;54672;46.096;14.470;2022-10-16T09:38:29;12.83;92.08
67868;SHT31;54672;46.096;14.470;2022-10-16T09:40:57;12.41;92.91
67868;SHT31;54672;46.096;14.470;2022-10-16T09:43:41;12.34;93.19
67868;SHT31;54672;46.096;14.470;2022-10-16T09:46:21;12.72;92.43
67868;SHT31;54672;46.096;14.470;2022-10-16T09:48:49;12.73;91.74
67868;SHT31;54672;46.096;14.470;2022-10-16T09:51:23;13.40;89.80
67868;SHT31;54672;46.096;14.470;2022-10-16T09:53:54;13.20;89.78
67868;SHT31;54672;46.096;14.470;2022-10-16T09:56:23;13.87;88.49
67868;SHT31;54672;46.096;14.470;2022-10-16T09:58:54;14.10;87.42
67868;SHT31;54672;46.096;14.470;2022-10-16T10:01:24;14.03;87.39
67868;SHT31;54672;46.096;14.470;2022-10-16T10:03:58;14.36;86.48
67868;SHT31;54672;46.096;14.470;2022-10-16T10:06:34;14.12;86.68
67868;SHT31;54672;46.096;14.470;2022-10-16T10:14:18;13.72;89.54
67868;SHT31;54672;46.096;14.470;2022-10-16T10:16:45;14.32;87.10
67868;SHT31;54672;46.096;14.470;2022-10-16T10:19:18;14.51;86.24
67868;SHT31;54672;46.096;14.470;2022-10-16T10:21:44;14.85;85.33
67868;SHT31;54672;46.096;14.470;2022-10-16T10:24:15;14.96;83.29
67868;SHT31;54672;46.096;14.470;2022-10-16T10:26:57;15.04;82.76
67868;SHT31;54672;46.096;14.470;2022-10-16T10:41:36;15.80;81.60
67868;SHT31;54672;46.096;14.470;2022-10-16T10:44:20;15.97;80.52
67868;SHT31;54672;46.096;14.470;2022-10-16T10:47:15;16.08;80.96
67868;SHT31;54672;46.096;14.470;2022-10-16T10:52:34;16.49;81.07
67868;SHT31;54672;46.096;14.470;2022-10-16T11:01:11;16.85;78.39
67868;SHT31;54672;46.096;14.470;2022-10-16T11:06:36;16.94;77.31
67868;SHT31;54672;46.096;14.470;2022-10-16T11:09:22;17.12;77.31
67868;SHT31;54672;46.096;14.470;2022-10-16T11:12:05;17.22;76.43
67868;SHT31;54672;46.096;14.470;2022-10-16T11:14:38;17.30;75.17
67868;SHT31;54672;46.096;14.470;2022-10-16T11:17:10;17.45;73.91
67868;SHT31;54672;46.096;14.470;2022-10-16T11:22:29;17.63;74.34
67868;SHT31;54672;46.096;14.470;2022-10-16T11:25:16;17.61;74.80
67868;SHT31;54672;46.096;14.470;2022-10-16T11:30:20;17.37;77.05
67868;SHT31;54672;46.096;14.470;2022-10-16T11:40:42;18.21;74.38
67868;SHT31;54672;46.096;14.470;2022-10-16T11:43:38;18.34;73.95
67868;SHT31;54672;46.096;14.470;2022-10-16T11:46:15;18.39;73.65
67868;SHT31;54672;46.096;14.470;2022-10-16T11:48:48;18.39;73.60
67868;SHT31;54672;46.096;14.470;2022-10-16T11:51:26;18.47;73.64
67868;SHT31;54672;46.096;14.470;2022-10-16T11:56:40;18.73;71.76
67868;SHT31;54672;46.096;14.470;2022-10-16T12:01:49;18.84;72.14
67868;SHT31;54672;46.096;14.470;2022-10-16T12:04:31;18.85;71.32
67868;SHT31;54672;46.096;14.470;2022-10-16T12:07:08;18.84;71.67
67868;SHT31;54672;46.096;14.470;2022-10-16T12:09:38;18.97;71.78
67868;SHT31;54672;46.096;14.470;2022-10-16T12:12:22;19.05;71.52
67868;SHT31;54672;46.096;14.470;2022-10-16T12:15:00;19.11;70.78
67868;SHT31;54672;46.096;14.470;2022-10-16T12:17:35;19.02;71.27
67868;SHT31;54672;46.096;14.470;2022-10-16T12:20:23;19.24;70.94
67868;SHT31;54672;46.096;14.470;2022-10-16T12:22:52;19.41;70.14
67868;SHT31;54672;46.096;14.470;2022-10-16T12:25:34;19.53;69.76
67868;SHT31;54672;46.096;14.470;2022-10-16T12:28:04;19.59;69.76
67868;SHT31;54672;46.096;14.470;2022-10-16T12:30:35;19.70;69.02
67868;SHT31;54672;46.096;14.470;2022-10-16T12:33:22;19.66;69.42
67868;SHT31;54672;46.096;14.470;2022-10-16T12:35:49;19.63;69.12
67868;SHT31;54672;46.096;14.470;2022-10-16T12:38:36;19.59;69.72
67868;SHT31;54672;46.096;14.470;2022-10-16T12:41:05;19.73;68.98
67868;SHT31;54672;46.096;14.470;2022-10-16T12:43:43;19.80;68.55
67868;SHT31;54672;46.096;14.470;2022-10-16T12:48:35;19.96;69.32
67868;SHT31;54672;46.096;14.470;2022-10-16T13:05:04;20.32;67.49
67868;SHT31;54672;46.096;14.470;2022-10-16T13:11:14;20.25;68.42
67868;SHT31;54672;46.096;14.470;2022-10-16T13:17:07;20.58;67.59
67868;SHT31;54672;46.096;14.470;2022-10-16T13:23:00;20.68;67.54
67868;SHT31;54672;46.096;14.470;2022-10-16T13:28:06;20.61;67.50
67868;SHT31;54672;46.096;14.470;2022-10-16T13:30:39;20.67;67.53
67868;SHT31;54672;46.096;14.470;2022-10-16T13:33:18;20.65;67.15
67868;SHT31;54672;46.096;14.470;2022-10-16T13:35:56;20.68;67.37
67868;SHT31;54672;46.096;14.470;2022-10-16T13:38:24;20.75;67.54
67868;SHT31;54672;46.096;14.470;2022-10-16T13:40:56;20.67;67.93
67868;SHT31;54672;46.096;14.470;2022-10-16T13:43:26;20.68;67.89
67868;SHT31;54672;46.096;14.470;2022-10-16T13:46:17;20.64;68.62
67868;SHT31;54672;46.096;14.470;2022-10-16T13:48:42;20.72;68.27
67868;SHT31;54672;46.096;14.470;2022-10-16T13:51:20;20.73;68.06
67868;SHT31;54672;46.096;14.470;2022-10-16T13:53:46;20.82;68.09
67868;SHT31;54672;46.096;14.470;2022-10-16T13:56:17;20.88;68.26
67868;SHT31;54672;46.096;14.470;2022-10-16T13:58:46;20.78;69.91
67868;SHT31;54672;46.096;14.470;2022-10-16T14:01:27;20.78;68.29
67868;SHT31;54672;46.096;14.470;2022-10-16T14:04:01;20.85;68.19
67868;SHT31;54672;46.096;14.470;2022-10-16T14:06:27;20.86;67.75
67868;SHT31;54672;46.096;14.470;2022-10-16T14:11:25;20.85;68.81
67868;SHT31;54672;46.096;14.470;2022-10-16T14:13:52;20.81;70.30
67868;SHT31;54672;46.096;14.470;2022-10-16T14:16:26;20.82;69.33
67868;SHT31;54672;46.096;14.470;2022-10-16T14:18:59;20.76;70.23
67868;SHT31;54672;46.096;14.470;2022-10-16T14:21:25;20.72;69.40
67868;SHT31;54672;46.096;14.470;2022-10-16T14:23:52;20.83;69.04
67868;SHT31;54672;46.096;14.470;2022-10-16T14:26:21;20.83;68.71
67868;SHT31;54672;46.096;14.470;2022-10-16T14:28:49;20.73;70.09
67868;SHT31;54672;46.096;14.470;2022-10-16T14:31:32;20.69;71.14
67868;SHT31;54672;46.096;14.470;2022-10-16T14:33:59;20.71;69.50
67868;SHT31;54672;46.096;14.470;2022-10-16T14:36:26;20.71;71.14
67868;SHT31;54672;46.096;14.470;2022-10-16T14:41:27;20.48;71.56
67868;SHT31;54672;46.096;14.470;2022-10-16T14:43:56;20.37;72.12
67868;SHT31;54672;46.096;14.470;2022-10-16T14:46:30;20.30;73.01
67868;SHT31;54672;46.096;14.470;2022-10-16T14:49:03;20.16;73.67
67868;SHT31;54672;46.096;14.470;2022-10-16T14:51:30;20.07;73.55
67868;SHT31;54672;46.096;14.470;2022-10-16T14:53:56;20.01;74.01
67868;SHT31;54672;46.096;14.470;2022-10-16T14:56:24;19.94;74.14
67868;SHT31;54672;46.096;14.470;2022-10-16T14:58:51;19.80;74.64
67868;SHT31;54672;46.096;14.470;2022-10-16T15:01:17;19.76;74.85
67868;SHT31;54672;46.096;14.470;2022-10-16T15:03:43;19.62;75.03
67868;SHT31;54672;46.096;14.470;2022-10-16T15:06:10;19.53;75.46
67868;SHT31;54672;46.096;14.470;2022-10-16T15:08:37;19.41;75.96
67868;SHT31;54672;46.096;14.470;2022-10-16T15:11:03;19.32;76.46
67868;SHT31;54672;46.096;14.470;2022-10-16T15:13:28;19.21;76.98
67868;SHT31;54672;46.096;14.470;2022-10-16T15:15:54;19.07;78.54
67868;SHT31;54672;46.096;14.470;2022-10-16T15:18:19;18.94;78.62
67868;SHT31;54672;46.096;14.470;2022-10-16T15:20:48;18.95;76.39
67868;SHT31;54672;46.096;14.470;2022-10-16T15:23:20;18.90;78.33
67868;SHT31;54672;46.096;14.470;2022-10-16T15:25:51;18.75;79.66
67868;SHT31;54672;46.096;14.470;2022-10-16T15:28:20;18.68;78.12
67868;SHT31;54672;46.096;14.470;2022-10-16T15:30:46;18.71;76.87
67868;SHT31;54672;46.096;14.470;2022-10-16T15:33:16;18.68;78.18
67868;SHT31;54672;46.096;14.470;2022-10-16T15:35:42;18.60;77.71
67868;SHT31;54672;46.096;14.470;2022-10-16T15:38:12;18.57;77.50
67868;SHT31;54672;46.096;14.470;2022-10-16T15:40:38;18.50;77.74
67868;SHT31;54672;46.096;14.470;2022-10-16T15:43:04;18.40;78.34
67868;SHT31;54672;46.096;14.470;2022-10-16T15:45:29;18.34;78.02
67868;SHT31;54672;46.096;14.470;2022-10-16T15:47:55;18.34;77.77
67868;SHT31;54672;46.096;14.470;2022-10-16T15:50:21;18.29;77.86
67868;SHT31;54672;46.096;14.470;2022-10-16T15:52:46;18.30;77.78
67868;SHT31;54672;46.096;14.470;2022-10-16T15:55:13;18.28;77.61
67868;SHT31;54672;46.096;14.470;2022-10-16T15:57:39;18.19;77.84
67868;SHT31;54672;46.096;14.470;2022-10-16T16:00:12;18.10;78.31
67868;SHT31;54672;46.096;14.470;2022-10-16T16:02:39;18.02;78.72
67868;SHT31;54672;46.096;14.470;2022-10-16T16:05:05;17.92;79.05
67868;SHT31;54672;46.096;14.470;2022-10-16T16:07:34;17.89;79.15
67868;SHT31;54672;46.096;14.470;2022-10-16T16:10:00;17.79;79.35
67868;SHT31;54672;46.096;14.470;2022-10-16T16:12:26;17.68;80.72
67868;SHT31;54672;46.096;14.470;2022-10-16T16:14:52;17.54;80.84
67868;SHT31;54672;46.096;14.470;2022-10-16T16:17:17;17.43;81.25
67868;SHT31;54672;46.096;14.470;2022-10-16T16:19:43;17.34;81.66
67868;SHT31;54672;46.096;14.470;2022-10-16T16:22:08;17.19;83.08
67868;SHT31;54672;46.096;14.470;2022-10-16T16:24:34;17.07;82.88
67868;SHT31;54672;46.096;14.470;2022-10-16T16:27:00;17.04;82.94
67868;SHT31;54672;46.096;14.470;2022-10-16T16:29:26;16.87;83.42
67868;SHT31;54672;46.096;14.470;2022-10-16T16:31:51;16.76;84.03
67868;SHT31;54672;46.096;14.470;2022-10-16T16:34:25;16.68;84.09
67868;SHT31;54672;46.096;14.470;2022-10-16T16:36:51;16.59;84.90
67868;SHT31;54672;46.096;14.470;2022-10-16T16:39:17;16.41;85.95
67868;SHT31;54672;46.096;14.470;2022-10-16T16:41:43;16.28;86.19
67868;SHT31;54672;46.096;14.470;2022-10-16T16:44:11;16.17;86.42
67868;SHT31;54672;46.096;14.470;2022-10-16T16:46:37;16.10;86.69
67868;SHT31;54672;46.096;14.470;2022-10-16T16:49:05;16.05;87.22
67868;SHT31;54672;46.096;14.470;2022-10-16T16:51:33;15.98;87.34
67868;SHT31;54672;46.096;14.470;2022-10-16T16:53:59;15.90;87.60
67868;SHT31;54672;46.096;14.470;2022-10-16T16:56:25;15.89;87.57
67868;SHT31;54672;46.096;14.470;2022-10-16T16:58:53;15.83;87.61
67868;SHT31;54672;46.096;14.470;2022-10-16T17:01:21;15.77;88.01
67868;SHT31;54672;46.096;14.470;2022-10-16T17:03:49;15.76;88.27
67868;SHT31;54672;46.096;14.470;2022-10-16T17:06:21;15.69;88.53
67868;SHT31;54672;46.096;14.470;2022-10-16T17:08:49;15.60;88.74
67868;SHT31;54672;46.096;14.470;2022-10-16T17:11:19;15.50;89.06
67868;SHT31;54672;46.096;14.470;2022-10-16T17:13:45;15.42;89.62
67868;SHT31;54672;46.096;14.470;2022-10-16T17:16:13;15.29;90.23
67868;SHT31;54672;46.096;14.470;2022-10-16T17:18:39;15.22;90.40
67868;SHT31;54672;46.096;14.470;2022-10-16T17:21:08;15.25;90.62
67868;SHT31;54672;46.096;14.470;2022-10-16T17:23:35;15.14;90.67
67868;SHT31;54672;46.096;14.470;2022-10-16T17:26:08;15.12;90.52
67868;SHT31;54672;46.096;14.470;2022-10-16T17:28:35;15.16;90.42
67868;SHT31;54672;46.096;14.470;2022-10-16T17:31:12;15.05;90.51